LEAS/OVD METAR and TAF weather

Enter ICAO airport designator
Station Type Date Time Source
LEAS METAR 2022/06/30 13:00 UTC NOAA

LEAS 301300Z 32009KT 280V020 CAVOK 18/12 Q1019 NOSIG


Station Type Date Time Source
LEAS Decoded METAR 2022/06/30 13:00 UTC NOAA

Asturias / Aviles, Spain (LEAS) 43-33N 006-02W 130M
Jun 30, 2022 - 09:00 AM EDT / 2022.06.30 1300 UTC
Wind: from the NW (320 degrees) at 10 MPH (9 KT) (direction variable):0
Visibility: greater than 7 mile(s):0
Temperature: 64 F (18 C)
Dew Point: 53 F (12 C)
Relative Humidity: 67%
Pressure (altimeter): 30.09 in. Hg (1019 hPa)
ob: LEAS 301300Z 32009KT 280V020 CAVOK 18/12 Q1019 NOSIG
cycle: 13

Station Type Date Time Source
LEAS TAF 2022/06/30 09:27 UTC NOAA

TAF TAF LEAS 300800Z 3009/0109 29008KT 9999 FEW020 SCT040 TX17/3014Z TN08/0105Z PROB30
TEMPO 3009/3012 3000 RA BKN010

Example: see airport list